Valdemorillo, Spain
Current Conditions -  °F | °C
As of 4:30 PM on Friday 19 Dec 2014 (Local Time) from LEVS Reporting Station
Clear Clear  
Wind Chill: 55°   Ceiling: Unl
Heat Index: 55°   Visibility: 5mi
Dew Point: 46°   Wind: 2mph
Humidity: 72%   Direction: 140°SE
Pressure: 30.39"   Gusts: NA
Location:  40.5°N, 4.07°W
Report Text: LEVS 191530Z 14002KT 8000 NSC 13/08 Q1029
Loading
Personal Weather Stations






























Interactive Weather Map New forecast layout! Learn more

10-Day Weather Forecast

Advertisements
Track Severe Weather on mobile